Terminal Aerodrome Forecast
Issued by NWS Bismarck, ND

Home | Current Version | Previous Version | Text Only | Print | Product List | Glossary On
Versions: 1 2 3 4 5 6 7 8 9 10 11 12 13 14 15 16 17 18 19
949
FTUS43 KBIS 221726
TAFBIS
TAF
KBIS 221726Z 2218/2318 33004KT 1/2SM FG OVC002
      TEMPO 2218/2220 1SM BR OVC003
     FM222000 33004KT 1 1/2SM BR OVC003
     FM222200 00000KT 5SM BR SCT003 BKN250
     FM230000 VRB03KT 3SM BR BKN003
     FM230300 00000KT 1 1/2SM BR OVC003
     FM230400 00000KT 1/4SM FG BKN003
     FM231500 29005KT 3SM BR SCT003
     FM231700 30006KT P6SM SCT250=

USA.gov is the U.S. government's official web portal to all federal, state and local government web resources and services.